sensor_id;sensor_type;location;lat;lon;timestamp;P1;durP1;ratioP1;P2;durP2;ratioP2
65583;SDS011;73032;43.592;1.458;2023-09-30T00:02:27;7.60;;;2.17;;
65583;SDS011;73032;43.592;1.458;2023-09-30T00:04:54;6.22;;;2.05;;
65583;SDS011;73032;43.592;1.458;2023-09-30T00:07:20;7.07;;;2.05;;
65583;SDS011;73032;43.592;1.458;2023-09-30T00:09:48;6.60;;;2.65;;
65583;SDS011;73032;43.592;1.458;2023-09-30T00:12:15;6.82;;;2.40;;
65583;SDS011;73032;43.592;1.458;2023-09-30T00:14:42;6.50;;;2.45;;
65583;SDS011;73032;43.592;1.458;2023-09-30T00:17:08;6.28;;;2.25;;
65583;SDS011;73032;43.592;1.458;2023-09-30T00:19:35;8.57;;;2.40;;
65583;SDS011;73032;43.592;1.458;2023-09-30T00:22:02;6.15;;;2.10;;
65583;SDS011;73032;43.592;1.458;2023-09-30T00:24:28;6.63;;;2.30;;
65583;SDS011;73032;43.592;1.458;2023-09-30T00:26:55;6.28;;;2.10;;
65583;SDS011;73032;43.592;1.458;2023-09-30T00:29:22;9.85;;;2.90;;
65583;SDS011;73032;43.592;1.458;2023-09-30T00:31:49;7.07;;;2.53;;
65583;SDS011;73032;43.592;1.458;2023-09-30T00:34:16;6.93;;;2.58;;
65583;SDS011;73032;43.592;1.458;2023-09-30T00:36:43;7.60;;;2.35;;
65583;SDS011;73032;43.592;1.458;2023-09-30T00:39:09;9.52;;;2.30;;
65583;SDS011;73032;43.592;1.458;2023-09-30T00:41:38;6.32;;;2.40;;
65583;SDS011;73032;43.592;1.458;2023-09-30T00:44:06;7.78;;;2.40;;
65583;SDS011;73032;43.592;1.458;2023-09-30T00:46:35;10.75;;;2.55;;
65583;SDS011;73032;43.592;1.458;2023-09-30T00:49:04;8.18;;;2.55;;
65583;SDS011;73032;43.592;1.458;2023-09-30T00:51:31;6.18;;;2.05;;
65583;SDS011;73032;43.592;1.458;2023-09-30T00:53:59;6.03;;;2.20;;
65583;SDS011;73032;43.592;1.458;2023-09-30T00:56:27;6.97;;;2.63;;
65583;SDS011;73032;43.592;1.458;2023-09-30T00:58:56;6.93;;;2.50;;
65583;SDS011;73032;43.592;1.458;2023-09-30T01:01:23;6.32;;;2.33;;
65583;SDS011;73032;43.592;1.458;2023-09-30T01:03:50;7.13;;;2.30;;
65583;SDS011;73032;43.592;1.458;2023-09-30T01:06:17;6.50;;;2.00;;
65583;SDS011;73032;43.592;1.458;2023-09-30T01:08:44;6.55;;;2.35;;
65583;SDS011;73032;43.592;1.458;2023-09-30T01:11:11;8.05;;;2.00;;
65583;SDS011;73032;43.592;1.458;2023-09-30T01:13:39;7.07;;;2.33;;
65583;SDS011;73032;43.592;1.458;2023-09-30T01:16:09;7.50;;;2.47;;
65583;SDS011;73032;43.592;1.458;2023-09-30T01:18:36;6.80;;;2.38;;
65583;SDS011;73032;43.592;1.458;2023-09-30T01:21:05;5.65;;;2.08;;
65583;SDS011;73032;43.592;1.458;2023-09-30T01:23:33;5.80;;;2.05;;
65583;SDS011;73032;43.592;1.458;2023-09-30T01:26:06;6.32;;;2.30;;
65583;SDS011;73032;43.592;1.458;2023-09-30T01:28:36;6.53;;;2.05;;
65583;SDS011;73032;43.592;1.458;2023-09-30T01:31:03;7.78;;;2.30;;
65583;SDS011;73032;43.592;1.458;2023-09-30T01:33:30;5.95;;;2.03;;
65583;SDS011;73032;43.592;1.458;2023-09-30T01:35:58;10.27;;;2.53;;
65583;SDS011;73032;43.592;1.458;2023-09-30T01:38:28;7.45;;;2.38;;
65583;SDS011;73032;43.592;1.458;2023-09-30T01:40:55;5.82;;;1.85;;
65583;SDS011;73032;43.592;1.458;2023-09-30T01:43:26;4.78;;;1.88;;
65583;SDS011;73032;43.592;1.458;2023-09-30T01:45:53;5.55;;;2.10;;
65583;SDS011;73032;43.592;1.458;2023-09-30T01:48:21;7.70;;;2.42;;
65583;SDS011;73032;43.592;1.458;2023-09-30T01:50:48;6.50;;;2.10;;
65583;SDS011;73032;43.592;1.458;2023-09-30T01:53:14;5.57;;;1.92;;
65583;SDS011;73032;43.592;1.458;2023-09-30T01:55:41;5.55;;;1.83;;
65583;SDS011;73032;43.592;1.458;2023-09-30T01:58:08;6.78;;;2.05;;
65583;SDS011;73032;43.592;1.458;2023-09-30T02:00:37;5.63;;;2.20;;
65583;SDS011;73032;43.592;1.458;2023-09-30T02:03:04;5.30;;;2.25;;
65583;SDS011;73032;43.592;1.458;2023-09-30T02:05:31;6.20;;;2.25;;
65583;SDS011;73032;43.592;1.458;2023-09-30T02:07:57;7.90;;;2.47;;
65583;SDS011;73032;43.592;1.458;2023-09-30T02:10:24;7.47;;;2.15;;
65583;SDS011;73032;43.592;1.458;2023-09-30T02:12:51;5.88;;;2.45;;
65583;SDS011;73032;43.592;1.458;2023-09-30T02:15:18;5.50;;;1.85;;
65583;SDS011;73032;43.592;1.458;2023-09-30T02:17:44;5.50;;;2.08;;
65583;SDS011;73032;43.592;1.458;2023-09-30T02:20:12;5.30;;;1.83;;
65583;SDS011;73032;43.592;1.458;2023-09-30T02:22:42;5.47;;;2.10;;
65583;SDS011;73032;43.592;1.458;2023-09-30T02:25:11;4.25;;;1.88;;
65583;SDS011;73032;43.592;1.458;2023-09-30T02:27:39;7.28;;;2.17;;
65583;SDS011;73032;43.592;1.458;2023-09-30T02:30:08;6.05;;;1.75;;
65583;SDS011;73032;43.592;1.458;2023-09-30T02:32:40;7.18;;;2.03;;
65583;SDS011;73032;43.592;1.458;2023-09-30T02:35:08;4.97;;;2.35;;
65583;SDS011;73032;43.592;1.458;2023-09-30T02:37:38;6.88;;;2.28;;
65583;SDS011;73032;43.592;1.458;2023-09-30T02:40:06;4.78;;;1.98;;
65583;SDS011;73032;43.592;1.458;2023-09-30T02:42:39;6.15;;;1.80;;
65583;SDS011;73032;43.592;1.458;2023-09-30T02:47:37;6.28;;;2.15;;
65583;SDS011;73032;43.592;1.458;2023-09-30T02:50:05;4.85;;;2.10;;
65583;SDS011;73032;43.592;1.458;2023-09-30T02:52:40;7.95;;;2.28;;
65583;SDS011;73032;43.592;1.458;2023-09-30T02:55:08;6.57;;;1.90;;
65583;SDS011;73032;43.592;1.458;2023-09-30T02:57:38;4.53;;;1.90;;
65583;SDS011;73032;43.592;1.458;2023-09-30T03:00:06;5.57;;;2.08;;
65583;SDS011;73032;43.592;1.458;2023-09-30T03:02:51;6.88;;;2.08;;
65583;SDS011;73032;43.592;1.458;2023-09-30T03:05:19;7.82;;;2.20;;
65583;SDS011;73032;43.592;1.458;2023-09-30T03:07:47;5.22;;;2.05;;
65583;SDS011;73032;43.592;1.458;2023-09-30T03:10:14;7.55;;;2.22;;
65583;SDS011;73032;43.592;1.458;2023-09-30T03:12:47;6.82;;;2.25;;
65583;SDS011;73032;43.592;1.458;2023-09-30T03:15:14;6.03;;;2.08;;
65583;SDS011;73032;43.592;1.458;2023-09-30T03:17:42;6.90;;;2.33;;
65583;SDS011;73032;43.592;1.458;2023-09-30T03:20:09;7.03;;;2.00;;
65583;SDS011;73032;43.592;1.458;2023-09-30T03:22:41;6.80;;;2.30;;
65583;SDS011;73032;43.592;1.458;2023-09-30T03:25:12;7.85;;;2.42;;
65583;SDS011;73032;43.592;1.458;2023-09-30T03:27:44;8.13;;;2.28;;
65583;SDS011;73032;43.592;1.458;2023-09-30T03:32:42;4.72;;;1.92;;
65583;SDS011;73032;43.592;1.458;2023-09-30T03:35:09;5.25;;;2.28;;
65583;SDS011;73032;43.592;1.458;2023-09-30T03:37:37;5.22;;;1.70;;
65583;SDS011;73032;43.592;1.458;2023-09-30T03:40:04;6.28;;;2.20;;
65583;SDS011;73032;43.592;1.458;2023-09-30T03:42:39;7.00;;;1.90;;
65583;SDS011;73032;43.592;1.458;2023-09-30T03:45:10;4.03;;;1.70;;
65583;SDS011;73032;43.592;1.458;2023-09-30T03:47:37;6.22;;;2.25;;
65583;SDS011;73032;43.592;1.458;2023-09-30T03:50:04;4.40;;;1.90;;
65583;SDS011;73032;43.592;1.458;2023-09-30T03:52:33;5.70;;;1.90;;
65583;SDS011;73032;43.592;1.458;2023-09-30T03:55:00;7.05;;;2.47;;
65583;SDS011;73032;43.592;1.458;2023-09-30T03:57:31;4.75;;;1.70;;
65583;SDS011;73032;43.592;1.458;2023-09-30T04:00:00;8.63;;;2.08;;
65583;SDS011;73032;43.592;1.458;2023-09-30T04:02:27;6.22;;;1.90;;
65583;SDS011;73032;43.592;1.458;2023-09-30T04:04:54;4.60;;;1.90;;
65583;SDS011;73032;43.592;1.458;2023-09-30T04:07:22;6.20;;;2.00;;
65583;SDS011;73032;43.592;1.458;2023-09-30T04:09:54;6.35;;;1.85;;
65583;SDS011;73032;43.592;1.458;2023-09-30T04:12:21;8.15;;;2.25;;
65583;SDS011;73032;43.592;1.458;2023-09-30T04:14:52;6.15;;;1.70;;
65583;SDS011;73032;43.592;1.458;2023-09-30T04:17:19;5.97;;;2.05;;
65583;SDS011;73032;43.592;1.458;2023-09-30T04:19:46;5.55;;;1.77;;
65583;SDS011;73032;43.592;1.458;2023-09-30T04:22:12;3.92;;;1.90;;
65583;SDS011;73032;43.592;1.458;2023-09-30T04:24:39;5.32;;;1.85;;
65583;SDS011;73032;43.592;1.458;2023-09-30T04:27:06;5.22;;;1.80;;
65583;SDS011;73032;43.592;1.458;2023-09-30T04:29:33;6.80;;;2.15;;
65583;SDS011;73032;43.592;1.458;2023-09-30T04:32:01;5.78;;;2.00;;
65583;SDS011;73032;43.592;1.458;2023-09-30T04:34:27;5.70;;;1.83;;
65583;SDS011;73032;43.592;1.458;2023-09-30T04:36:54;6.10;;;2.10;;
65583;SDS011;73032;43.592;1.458;2023-09-30T04:39:21;5.63;;;1.90;;
65583;SDS011;73032;43.592;1.458;2023-09-30T04:41:47;4.07;;;2.00;;
65583;SDS011;73032;43.592;1.458;2023-09-30T04:44:14;5.70;;;2.17;;
65583;SDS011;73032;43.592;1.458;2023-09-30T04:46:41;5.75;;;2.05;;
65583;SDS011;73032;43.592;1.458;2023-09-30T04:49:15;6.55;;;2.10;;
65583;SDS011;73032;43.592;1.458;2023-09-30T04:51:42;4.33;;;1.90;;
65583;SDS011;73032;43.592;1.458;2023-09-30T04:54:08;5.57;;;1.80;;
65583;SDS011;73032;43.592;1.458;2023-09-30T04:56:35;6.65;;;2.00;;
65583;SDS011;73032;43.592;1.458;2023-09-30T04:59:02;5.18;;;2.20;;
65583;SDS011;73032;43.592;1.458;2023-09-30T05:01:31;6.30;;;2.22;;
65583;SDS011;73032;43.592;1.458;2023-09-30T05:03:58;5.00;;;1.92;;
65583;SDS011;73032;43.592;1.458;2023-09-30T05:06:25;3.88;;;1.70;;
65583;SDS011;73032;43.592;1.458;2023-09-30T05:08:53;5.18;;;2.08;;
65583;SDS011;73032;43.592;1.458;2023-09-30T05:11:21;4.47;;;2.03;;
65583;SDS011;73032;43.592;1.458;2023-09-30T05:13:48;4.95;;;2.15;;
65583;SDS011;73032;43.592;1.458;2023-09-30T05:16:15;6.63;;;2.40;;
65583;SDS011;73032;43.592;1.458;2023-09-30T05:18:42;7.32;;;2.30;;
65583;SDS011;73032;43.592;1.458;2023-09-30T05:21:09;7.50;;;2.50;;
65583;SDS011;73032;43.592;1.458;2023-09-30T05:23:37;6.40;;;2.33;;
65583;SDS011;73032;43.592;1.458;2023-09-30T05:26:04;5.25;;;2.00;;
65583;SDS011;73032;43.592;1.458;2023-09-30T05:28:31;4.07;;;2.10;;
65583;SDS011;73032;43.592;1.458;2023-09-30T05:30:58;5.65;;;2.08;;
65583;SDS011;73032;43.592;1.458;2023-09-30T05:33:25;8.30;;;2.28;;
65583;SDS011;73032;43.592;1.458;2023-09-30T05:35:54;5.82;;;1.80;;
65583;SDS011;73032;43.592;1.458;2023-09-30T05:38:21;7.80;;;2.15;;
65583;SDS011;73032;43.592;1.458;2023-09-30T05:40:49;5.13;;;1.98;;
65583;SDS011;73032;43.592;1.458;2023-09-30T05:43:16;4.50;;;1.70;;
65583;SDS011;73032;43.592;1.458;2023-09-30T05:45:43;5.70;;;1.88;;
65583;SDS011;73032;43.592;1.458;2023-09-30T05:48:16;6.43;;;2.17;;
65583;SDS011;73032;43.592;1.458;2023-09-30T05:50:42;5.93;;;1.95;;
65583;SDS011;73032;43.592;1.458;2023-09-30T05:53:10;4.88;;;1.70;;
65583;SDS011;73032;43.592;1.458;2023-09-30T05:55:37;4.00;;;1.90;;
65583;SDS011;73032;43.592;1.458;2023-09-30T05:58:04;5.82;;;2.20;;
65583;SDS011;73032;43.592;1.458;2023-09-30T06:00:32;5.53;;;2.15;;
65583;SDS011;73032;43.592;1.458;2023-09-30T06:03:02;5.23;;;1.90;;
65583;SDS011;73032;43.592;1.458;2023-09-30T06:05:32;5.57;;;1.83;;
65583;SDS011;73032;43.592;1.458;2023-09-30T06:08:01;6.00;;;1.77;;
65583;SDS011;73032;43.592;1.458;2023-09-30T06:10:30;5.03;;;2.00;;
65583;SDS011;73032;43.592;1.458;2023-09-30T06:12:57;5.35;;;1.90;;
65583;SDS011;73032;43.592;1.458;2023-09-30T06:15:25;5.38;;;2.03;;
65583;SDS011;73032;43.592;1.458;2023-09-30T06:17:53;5.03;;;1.88;;
65583;SDS011;73032;43.592;1.458;2023-09-30T06:20:20;7.55;;;1.90;;
65583;SDS011;73032;43.592;1.458;2023-09-30T06:22:49;6.35;;;1.90;;
65583;SDS011;73032;43.592;1.458;2023-09-30T06:25:16;5.43;;;1.63;;
65583;SDS011;73032;43.592;1.458;2023-09-30T06:27:43;5.68;;;1.92;;
65583;SDS011;73032;43.592;1.458;2023-09-30T06:30:11;6.38;;;2.13;;
65583;SDS011;73032;43.592;1.458;2023-09-30T06:32:42;7.25;;;2.00;;
65583;SDS011;73032;43.592;1.458;2023-09-30T06:35:10;4.38;;;1.67;;
65583;SDS011;73032;43.592;1.458;2023-09-30T06:37:38;5.38;;;1.92;;
65583;SDS011;73032;43.592;1.458;2023-09-30T06:40:06;5.90;;;1.80;;
65583;SDS011;73032;43.592;1.458;2023-09-30T06:42:35;8.23;;;1.83;;
65583;SDS011;73032;43.592;1.458;2023-09-30T06:45:03;4.97;;;2.00;;
65583;SDS011;73032;43.592;1.458;2023-09-30T06:47:34;4.85;;;1.90;;
65583;SDS011;73032;43.592;1.458;2023-09-30T06:50:03;4.80;;;2.00;;
65583;SDS011;73032;43.592;1.458;2023-09-30T06:52:34;4.50;;;1.70;;
65583;SDS011;73032;43.592;1.458;2023-09-30T06:55:02;5.10;;;1.88;;
65583;SDS011;73032;43.592;1.458;2023-09-30T06:57:34;5.78;;;2.03;;
65583;SDS011;73032;43.592;1.458;2023-09-30T07:00:06;6.60;;;1.83;;
65583;SDS011;73032;43.592;1.458;2023-09-30T07:02:38;4.78;;;1.98;;
65583;SDS011;73032;43.592;1.458;2023-09-30T07:05:08;4.57;;;2.22;;
65583;SDS011;73032;43.592;1.458;2023-09-30T07:10:03;5.15;;;1.85;;
65583;SDS011;73032;43.592;1.458;2023-09-30T07:12:31;3.70;;;1.90;;
65583;SDS011;73032;43.592;1.458;2023-09-30T07:15:02;7.03;;;2.25;;
65583;SDS011;73032;43.592;1.458;2023-09-30T07:17:30;5.38;;;1.70;;
65583;SDS011;73032;43.592;1.458;2023-09-30T07:19:58;5.93;;;2.05;;
65583;SDS011;73032;43.592;1.458;2023-09-30T07:22:25;6.45;;;1.92;;
65583;SDS011;73032;43.592;1.458;2023-09-30T07:25:11;4.65;;;1.60;;
65583;SDS011;73032;43.592;1.458;2023-09-30T07:27:41;6.47;;;2.30;;
65583;SDS011;73032;43.592;1.458;2023-09-30T07:30:09;5.05;;;2.20;;
65583;SDS011;73032;43.592;1.458;2023-09-30T07:32:38;4.10;;;1.98;;
65583;SDS011;73032;43.592;1.458;2023-09-30T07:35:05;4.45;;;2.08;;
65583;SDS011;73032;43.592;1.458;2023-09-30T07:37:32;4.85;;;1.98;;
65583;SDS011;73032;43.592;1.458;2023-09-30T07:40:00;6.25;;;1.92;;
65583;SDS011;73032;43.592;1.458;2023-09-30T07:42:27;6.82;;;1.90;;
65583;SDS011;73032;43.592;1.458;2023-09-30T07:44:53;3.70;;;1.83;;
65583;SDS011;73032;43.592;1.458;2023-09-30T07:47:20;6.10;;;1.92;;
65583;SDS011;73032;43.592;1.458;2023-09-30T07:49:47;5.53;;;2.08;;
65583;SDS011;73032;43.592;1.458;2023-09-30T07:52:14;4.32;;;1.95;;
65583;SDS011;73032;43.592;1.458;2023-09-30T07:54:41;3.53;;;1.75;;
65583;SDS011;73032;43.592;1.458;2023-09-30T07:57:08;6.70;;;1.80;;
65583;SDS011;73032;43.592;1.458;2023-09-30T07:59:35;5.90;;;2.15;;
65583;SDS011;73032;43.592;1.458;2023-09-30T08:02:02;5.47;;;2.35;;
65583;SDS011;73032;43.592;1.458;2023-09-30T08:04:31;7.65;;;2.28;;
65583;SDS011;73032;43.592;1.458;2023-09-30T08:06:58;4.10;;;1.83;;
65583;SDS011;73032;43.592;1.458;2023-09-30T08:09:25;6.03;;;1.85;;
65583;SDS011;73032;43.592;1.458;2023-09-30T08:11:54;5.63;;;2.00;;
65583;SDS011;73032;43.592;1.458;2023-09-30T08:14:22;5.90;;;2.20;;
65583;SDS011;73032;43.592;1.458;2023-09-30T08:16:49;9.13;;;2.40;;
65583;SDS011;73032;43.592;1.458;2023-09-30T08:19:16;6.13;;;2.17;;
65583;SDS011;73032;43.592;1.458;2023-09-30T08:21:43;6.65;;;2.22;;
65583;SDS011;73032;43.592;1.458;2023-09-30T08:24:10;5.45;;;2.10;;
65583;SDS011;73032;43.592;1.458;2023-09-30T08:26:36;6.07;;;2.20;;
65583;SDS011;73032;43.592;1.458;2023-09-30T08:29:04;5.93;;;2.35;;
65583;SDS011;73032;43.592;1.458;2023-09-30T08:31:30;7.50;;;2.50;;
65583;SDS011;73032;43.592;1.458;2023-09-30T08:33:57;4.97;;;1.95;;
65583;SDS011;73032;43.592;1.458;2023-09-30T08:36:24;6.03;;;2.42;;
65583;SDS011;73032;43.592;1.458;2023-09-30T08:38:51;6.40;;;2.42;;
65583;SDS011;73032;43.592;1.458;2023-09-30T08:41:38;5.43;;;2.15;;
65583;SDS011;73032;43.592;1.458;2023-09-30T08:44:04;8.48;;;2.25;;
65583;SDS011;73032;43.592;1.458;2023-09-30T08:46:33;6.80;;;2.33;;
65583;SDS011;73032;43.592;1.458;2023-09-30T08:49:01;4.75;;;2.00;;
65583;SDS011;73032;43.592;1.458;2023-09-30T08:51:30;6.53;;;2.50;;
65583;SDS011;73032;43.592;1.458;2023-09-30T08:53:58;7.25;;;2.20;;
65583;SDS011;73032;43.592;1.458;2023-09-30T08:56:29;5.80;;;2.40;;
65583;SDS011;73032;43.592;1.458;2023-09-30T08:58:59;6.40;;;2.33;;
65583;SDS011;73032;43.592;1.458;2023-09-30T09:01:27;6.88;;;2.20;;
65583;SDS011;73032;43.592;1.458;2023-09-30T09:03:55;7.35;;;1.95;;
65583;SDS011;73032;43.592;1.458;2023-09-30T09:06:23;6.65;;;2.35;;
65583;SDS011;73032;43.592;1.458;2023-09-30T09:08:51;7.07;;;2.45;;
65583;SDS011;73032;43.592;1.458;2023-09-30T09:11:18;6.35;;;2.17;;
65583;SDS011;73032;43.592;1.458;2023-09-30T09:13:46;7.15;;;2.30;;
65583;SDS011;73032;43.592;1.458;2023-09-30T09:16:16;7.75;;;2.20;;
65583;SDS011;73032;43.592;1.458;2023-09-30T09:18:47;4.70;;;2.00;;
65583;SDS011;73032;43.592;1.458;2023-09-30T09:21:15;7.30;;;2.35;;
65583;SDS011;73032;43.592;1.458;2023-09-30T09:23:44;4.82;;;1.95;;
65583;SDS011;73032;43.592;1.458;2023-09-30T09:26:13;5.15;;;2.08;;
65583;SDS011;73032;43.592;1.458;2023-09-30T09:28:50;5.40;;;2.05;;
65583;SDS011;73032;43.592;1.458;2023-09-30T09:31:22;6.45;;;2.13;;
65583;SDS011;73032;43.592;1.458;2023-09-30T09:33:50;5.35;;;2.00;;
65583;SDS011;73032;43.592;1.458;2023-09-30T09:36:17;6.07;;;2.08;;
65583;SDS011;73032;43.592;1.458;2023-09-30T09:38:49;4.85;;;2.10;;
65583;SDS011;73032;43.592;1.458;2023-09-30T09:41:20;6.00;;;2.08;;
65583;SDS011;73032;43.592;1.458;2023-09-30T09:43:50;4.90;;;1.67;;
65583;SDS011;73032;43.592;1.458;2023-09-30T09:46:19;4.50;;;1.80;;
65583;SDS011;73032;43.592;1.458;2023-09-30T09:48:46;5.03;;;1.83;;
65583;SDS011;73032;43.592;1.458;2023-09-30T09:51:13;4.20;;;1.90;;
65583;SDS011;73032;43.592;1.458;2023-09-30T09:53:41;5.20;;;1.75;;
65583;SDS011;73032;43.592;1.458;2023-09-30T09:56:08;6.20;;;1.80;;
65583;SDS011;73032;43.592;1.458;2023-09-30T09:58:36;4.07;;;1.75;;
65583;SDS011;73032;43.592;1.458;2023-09-30T10:01:10;5.32;;;1.80;;
65583;SDS011;73032;43.592;1.458;2023-09-30T10:03:40;5.68;;;1.63;;
65583;SDS011;73032;43.592;1.458;2023-09-30T10:06:08;5.30;;;1.90;;
65583;SDS011;73032;43.592;1.458;2023-09-30T10:08:36;4.78;;;1.73;;
65583;SDS011;73032;43.592;1.458;2023-09-30T10:11:06;5.35;;;2.15;;
65583;SDS011;73032;43.592;1.458;2023-09-30T10:19:17;3.13;;;1.20;;
65583;SDS011;73032;43.592;1.458;2023-09-30T10:24:51;3.20;;;1.38;;
65583;SDS011;73032;43.592;1.458;2023-09-30T10:35:18;2.67;;;1.17;;
65583;SDS011;73032;43.592;1.458;2023-09-30T10:37:45;3.30;;;1.33;;
65583;SDS011;73032;43.592;1.458;2023-09-30T10:40:28;3.28;;;1.40;;
65583;SDS011;73032;43.592;1.458;2023-09-30T10:42:57;3.92;;;1.40;;
65583;SDS011;73032;43.592;1.458;2023-09-30T10:53:18;4.45;;;1.50;;
65583;SDS011;73032;43.592;1.458;2023-09-30T10:55:45;3.88;;;1.50;;
65583;SDS011;73032;43.592;1.458;2023-09-30T10:58:13;4.43;;;1.40;;
65583;SDS011;73032;43.592;1.458;2023-09-30T11:00:39;2.80;;;1.40;;
65583;SDS011;73032;43.592;1.458;2023-09-30T11:03:22;3.03;;;1.48;;
65583;SDS011;73032;43.592;1.458;2023-09-30T11:05:50;5.03;;;1.58;;
65583;SDS011;73032;43.592;1.458;2023-09-30T11:08:37;3.53;;;1.40;;
65583;SDS011;73032;43.592;1.458;2023-09-30T11:11:06;2.90;;;1.30;;
65583;SDS011;73032;43.592;1.458;2023-09-30T11:13:33;2.88;;;1.25;;
65583;SDS011;73032;43.592;1.458;2023-09-30T11:16:03;2.72;;;1.30;;
65583;SDS011;73032;43.592;1.458;2023-09-30T11:18:35;3.72;;;1.27;;
65583;SDS011;73032;43.592;1.458;2023-09-30T11:21:10;2.17;;;1.08;;
65583;SDS011;73032;43.592;1.458;2023-09-30T11:23:40;2.17;;;1.20;;
65583;SDS011;73032;43.592;1.458;2023-09-30T11:26:07;2.60;;;1.17;;
65583;SDS011;73032;43.592;1.458;2023-09-30T11:28:41;3.22;;;1.33;;
65583;SDS011;73032;43.592;1.458;2023-09-30T11:31:13;1.77;;;1.00;;
65583;SDS011;73032;43.592;1.458;2023-09-30T11:33:49;2.40;;;1.08;;
65583;SDS011;73032;43.592;1.458;2023-09-30T11:36:17;4.45;;;1.30;;
65583;SDS011;73032;43.592;1.458;2023-09-30T11:38:46;1.92;;;1.02;;
65583;SDS011;73032;43.592;1.458;2023-09-30T11:41:14;1.67;;;0.95;;
65583;SDS011;73032;43.592;1.458;2023-09-30T11:43:59;2.42;;;1.27;;
65583;SDS011;73032;43.592;1.458;2023-09-30T11:46:31;2.75;;;1.15;;
65583;SDS011;73032;43.592;1.458;2023-09-30T11:49:00;3.47;;;1.38;;
65583;SDS011;73032;43.592;1.458;2023-09-30T11:51:29;2.45;;;1.27;;
65583;SDS011;73032;43.592;1.458;2023-09-30T11:53:57;3.00;;;1.10;;
65583;SDS011;73032;43.592;1.458;2023-09-30T11:58:57;3.33;;;1.05;;
65583;SDS011;73032;43.592;1.458;2023-09-30T12:01:25;4.72;;;1.50;;
65583;SDS011;73032;43.592;1.458;2023-09-30T12:03:52;3.35;;;1.30;;
65583;SDS011;73032;43.592;1.458;2023-09-30T12:06:23;3.72;;;1.20;;
65583;SDS011;73032;43.592;1.458;2023-09-30T12:08:51;2.55;;;1.30;;
65583;SDS011;73032;43.592;1.458;2023-09-30T12:11:18;2.08;;;1.20;;
65583;SDS011;73032;43.592;1.458;2023-09-30T12:13:45;2.63;;;1.27;;
65583;SDS011;73032;43.592;1.458;2023-09-30T12:16:14;2.47;;;1.20;;
65583;SDS011;73032;43.592;1.458;2023-09-30T12:18:42;2.35;;;1.10;;
65583;SDS011;73032;43.592;1.458;2023-09-30T12:21:09;2.42;;;1.10;;
65583;SDS011;73032;43.592;1.458;2023-09-30T12:23:37;4.30;;;1.30;;
65583;SDS011;73032;43.592;1.458;2023-09-30T12:26:04;3.17;;;1.40;;
65583;SDS011;73032;43.592;1.458;2023-09-30T12:28:40;3.33;;;1.48;;
65583;SDS011;73032;43.592;1.458;2023-09-30T12:31:07;3.15;;;1.30;;
65583;SDS011;73032;43.592;1.458;2023-09-30T12:33:34;3.80;;;1.33;;
65583;SDS011;73032;43.592;1.458;2023-09-30T12:36:01;4.68;;;2.25;;
65583;SDS011;73032;43.592;1.458;2023-09-30T12:38:28;3.97;;;1.42;;
65583;SDS011;73032;43.592;1.458;2023-09-30T12:40:55;2.80;;;1.00;;
65583;SDS011;73032;43.592;1.458;2023-09-30T12:43:22;2.72;;;1.15;;
65583;SDS011;73032;43.592;1.458;2023-09-30T12:45:49;2.85;;;1.23;;
65583;SDS011;73032;43.592;1.458;2023-09-30T12:48:15;2.15;;;1.20;;
65583;SDS011;73032;43.592;1.458;2023-09-30T12:50:43;2.10;;;1.02;;
65583;SDS011;73032;43.592;1.458;2023-09-30T12:53:10;2.53;;;1.20;;
65583;SDS011;73032;43.592;1.458;2023-09-30T12:55:37;3.28;;;1.00;;
65583;SDS011;73032;43.592;1.458;2023-09-30T12:58:04;2.45;;;1.17;;
65583;SDS011;73032;43.592;1.458;2023-09-30T13:00:31;2.80;;;1.13;;
65583;SDS011;73032;43.592;1.458;2023-09-30T13:03:02;2.10;;;1.20;;
65583;SDS011;73032;43.592;1.458;2023-09-30T13:05:30;2.20;;;1.10;;
65583;SDS011;73032;43.592;1.458;2023-09-30T13:07:57;2.08;;;1.00;;
65583;SDS011;73032;43.592;1.458;2023-09-30T13:10:23;2.42;;;1.20;;
65583;SDS011;73032;43.592;1.458;2023-09-30T13:12:51;1.92;;;1.10;;
65583;SDS011;73032;43.592;1.458;2023-09-30T13:15:20;2.20;;;1.20;;
65583;SDS011;73032;43.592;1.458;2023-09-30T13:17:47;2.08;;;1.10;;
65583;SDS011;73032;43.592;1.458;2023-09-30T13:20:14;2.67;;;1.17;;
65583;SDS011;73032;43.592;1.458;2023-09-30T13:22:41;2.72;;;1.20;;
65583;SDS011;73032;43.592;1.458;2023-09-30T13:25:08;2.08;;;1.08;;
65583;SDS011;73032;43.592;1.458;2023-09-30T13:27:35;1.90;;;1.08;;
65583;SDS011;73032;43.592;1.458;2023-09-30T13:30:01;2.40;;;1.30;;
65583;SDS011;73032;43.592;1.458;2023-09-30T13:32:29;1.77;;;1.05;;
65583;SDS011;73032;43.592;1.458;2023-09-30T13:34:57;2.10;;;1.10;;
65583;SDS011;73032;43.592;1.458;2023-09-30T13:37:23;2.58;;;1.10;;
65583;SDS011;73032;43.592;1.458;2023-09-30T13:39:56;2.22;;;1.20;;
65583;SDS011;73032;43.592;1.458;2023-09-30T13:42:23;4.65;;;1.38;;
65583;SDS011;73032;43.592;1.458;2023-09-30T13:44:49;2.78;;;1.10;;
65583;SDS011;73032;43.592;1.458;2023-09-30T13:47:16;1.55;;;1.15;;
65583;SDS011;73032;43.592;1.458;2023-09-30T13:49:43;1.33;;;0.82;;
65583;SDS011;73032;43.592;1.458;2023-09-30T13:52:09;2.45;;;1.40;;
65583;SDS011;73032;43.592;1.458;2023-09-30T13:54:36;2.25;;;1.10;;
65583;SDS011;73032;43.592;1.458;2023-09-30T13:57:03;2.22;;;1.15;;
65583;SDS011;73032;43.592;1.458;2023-09-30T13:59:33;3.03;;;1.00;;
65583;SDS011;73032;43.592;1.458;2023-09-30T14:02:00;2.97;;;1.23;;
65583;SDS011;73032;43.592;1.458;2023-09-30T14:04:29;1.77;;;1.00;;
65583;SDS011;73032;43.592;1.458;2023-09-30T14:06:58;2.95;;;1.10;;
65583;SDS011;73032;43.592;1.458;2023-09-30T14:09:28;1.95;;;1.00;;
65583;SDS011;73032;43.592;1.458;2023-09-30T14:12:02;2.13;;;1.05;;
65583;SDS011;73032;43.592;1.458;2023-09-30T14:14:31;2.85;;;1.00;;
65583;SDS011;73032;43.592;1.458;2023-09-30T14:16:59;2.45;;;1.00;;
65583;SDS011;73032;43.592;1.458;2023-09-30T14:19:26;2.08;;;1.10;;
65583;SDS011;73032;43.592;1.458;2023-09-30T14:21:55;2.30;;;1.08;;
65583;SDS011;73032;43.592;1.458;2023-09-30T14:24:22;2.30;;;1.00;;
65583;SDS011;73032;43.592;1.458;2023-09-30T14:26:49;1.77;;;1.00;;
65583;SDS011;73032;43.592;1.458;2023-09-30T14:29:16;2.13;;;1.20;;
65583;SDS011;73032;43.592;1.458;2023-09-30T14:31:43;2.45;;;1.00;;
65583;SDS011;73032;43.592;1.458;2023-09-30T14:34:10;2.00;;;0.90;;
65583;SDS011;73032;43.592;1.458;2023-09-30T14:36:36;2.40;;;1.10;;
65583;SDS011;73032;43.592;1.458;2023-09-30T14:39:03;1.60;;;0.95;;
65583;SDS011;73032;43.592;1.458;2023-09-30T14:41:40;1.80;;;1.00;;
65583;SDS011;73032;43.592;1.458;2023-09-30T14:44:07;1.98;;;0.98;;
65583;SDS011;73032;43.592;1.458;2023-09-30T14:46:34;2.22;;;1.08;;
65583;SDS011;73032;43.592;1.458;2023-09-30T14:49:01;2.20;;;0.90;;
65583;SDS011;73032;43.592;1.458;2023-09-30T14:51:28;2.75;;;1.08;;
65583;SDS011;73032;43.592;1.458;2023-09-30T14:53:55;1.90;;;0.90;;
65583;SDS011;73032;43.592;1.458;2023-09-30T14:56:22;2.13;;;1.00;;
65583;SDS011;73032;43.592;1.458;2023-09-30T14:58:48;2.63;;;1.00;;
65583;SDS011;73032;43.592;1.458;2023-09-30T15:01:15;3.17;;;1.10;;
65583;SDS011;73032;43.592;1.458;2023-09-30T15:03:42;2.40;;;0.90;;
65583;SDS011;73032;43.592;1.458;2023-09-30T15:06:10;1.45;;;0.80;;
65583;SDS011;73032;43.592;1.458;2023-09-30T15:08:37;1.65;;;0.82;;
65583;SDS011;73032;43.592;1.458;2023-09-30T15:11:04;1.48;;;0.85;;
65583;SDS011;73032;43.592;1.458;2023-09-30T15:13:31;3.00;;;1.08;;
65583;SDS011;73032;43.592;1.458;2023-09-30T15:15:58;1.40;;;0.80;;
65583;SDS011;73032;43.592;1.458;2023-09-30T15:18:25;2.35;;;1.00;;
65583;SDS011;73032;43.592;1.458;2023-09-30T15:20:52;2.17;;;0.93;;
65583;SDS011;73032;43.592;1.458;2023-09-30T15:23:18;1.55;;;0.80;;
65583;SDS011;73032;43.592;1.458;2023-09-30T15:25:45;2.13;;;1.02;;
65583;SDS011;73032;43.592;1.458;2023-09-30T15:28:12;2.80;;;0.90;;
65583;SDS011;73032;43.592;1.458;2023-09-30T15:30:40;1.98;;;1.00;;